Weather History for Monett, MO

Change the Weather History Date:

Thursday, March 7, 2013

  Actual Average (KJLN) Record (KJLN)
Temperature  
Mean Temperature 46 °F 46 °F  
Max Temperature 60 °F 57 °F 79 °F (2000)
Min Temperature 32 °F 35 °F 7 °F (1989)
Degree Days  
Heating Degree Days 19 19  
Month to date heating degree days 140  
Since 1 July heating degree days 3394  
Cooling Degree Days 0 0  
Month to date cooling degree days 0  
Year to date cooling degree days 1  
Moisture  
Dew Point 28 °F    
Average Humidity 54    
Maximum Humidity 80    
Minimum Humidity 23    
Precipitation  
Precipitation 0.00 in 0.11 in 0.46 in (1995)
Month to date precipitation 0.73  
Year to date precipitation 5.08  
Sea Level Pressure  
Sea Level Pressure 30.20 in    
Wind  
Wind Speed 10 mph (SE)    
Max Wind Speed 14 mph    
Max Gust Speed 21 mph    
Visibility 10 miles    
Events      
T = Trace of Precipitation, MM = Missing Value Source: NWS Daily Summary

Daily Weather History Graph

Daily Weather History Graph

Search for Another Location

Airport:

Trip Planner

Search our weather history database for the weather conditions in past years. The results will help you decide how hot, cold, wet, or windy it might be!

Date:

Astronomy

Mar. 07, 2013 Rise Set
Actual Time 6:38 AM CST 6:16 PM CST
Civil Twilight 6:12 AM CST 6:42 PM CST
Nautical Twilight 5:42 AM CST 7:12 PM CST
Astronomical Twilight 5:12 AM CST 7:42 PM CST
Moon 3:33 AM CST (3/7) 2:09 PM CST (3/7)
Length of Visible Light 12h 29m
Length of Day
11h 38m
Waning Crescent, 20% of the Moon is Illuminated
Mar 7
Waning Crescent
Mar 11
New
Mar 19
First Quarter
Mar 27
Full
Apr 2
Last Quarter

Hourly Weather History & Observations

Time (CST) Temp. Windchill Dew Point Humidity Pressure Visibility Wind Dir Wind Speed Gust Speed Precip Events Conditions
12:15 AM 33.8 °F 28.6 °F 26.6 °F 75% 30.23 in 10.0 mi ESE 5.8 mph - N/A   Scattered Clouds
12:35 AM 33.8 °F 29.6 °F 26.6 °F 75% 30.23 in 10.0 mi East 4.6 mph - N/A   Scattered Clouds
1:15 AM 35.6 °F 29.2 °F 24.8 °F 65% 30.24 in 10.0 mi ESE 8.1 mph - N/A   Scattered Clouds
1:35 AM 35.6 °F 29.2 °F 26.6 °F 70% 30.25 in 10.0 mi East 8.1 mph - N/A   Clear
1:55 AM 35.6 °F 28.0 °F 24.8 °F 65% 30.25 in 10.0 mi ESE 10.4 mph - N/A   Scattered Clouds
2:15 AM 35.6 °F 28.0 °F 24.8 °F 65% 30.24 in 10.0 mi ESE 10.4 mph - N/A   Mostly Cloudy
2:35 AM 35.6 °F 28.6 °F 24.8 °F 65% 30.23 in 10.0 mi East 9.2 mph - N/A   Scattered Clouds
2:55 AM 35.6 °F 27.5 °F 26.6 °F 70% 30.23 in 10.0 mi ESE 11.5 mph - N/A   Scattered Clouds
3:15 AM 35.6 °F 28.0 °F 24.8 °F 65% 30.22 in 10.0 mi ESE 10.4 mph - N/A   Scattered Clouds
3:35 AM 35.6 °F 28.0 °F 24.8 °F 65% 30.22 in 10.0 mi ESE 10.4 mph - N/A   Clear
3:55 AM 35.6 °F 28.6 °F 26.6 °F 70% 30.23 in 10.0 mi ESE 9.2 mph - N/A   Clear
4:15 AM 33.8 °F 25.3 °F 24.8 °F 70% 30.23 in 10.0 mi ESE 11.5 mph - N/A   Scattered Clouds
4:35 AM 33.8 °F 26.4 °F 24.8 °F 70% 30.23 in 10.0 mi ESE 9.2 mph - N/A   Scattered Clouds
4:55 AM 33.8 °F 25.3 °F 26.6 °F 75% 30.23 in 10.0 mi ESE 11.5 mph - N/A   Clear
5:15 AM 33.8 °F 25.3 °F 26.6 °F 75% 30.22 in 10.0 mi ESE 11.5 mph - N/A   Scattered Clouds
5:35 AM 33.8 °F 25.3 °F 26.6 °F 75% 30.21 in 10.0 mi SE 11.5 mph - N/A   Clear
5:55 AM 33.8 °F 25.8 °F 24.8 °F 70% 30.22 in 10.0 mi SE 10.4 mph - N/A   Clear
6:15 AM 32.0 °F 23.6 °F 26.6 °F 80% 30.23 in 10.0 mi SE 10.4 mph - N/A   Scattered Clouds
6:35 AM 32.0 °F 23.6 °F 26.6 °F 80% 30.22 in 10.0 mi ESE 10.4 mph - N/A   Clear
6:55 AM 32.0 °F 23.6 °F 26.6 °F 80% 30.23 in 10.0 mi ESE 10.4 mph - N/A   Clear
7:15 AM 33.8 °F 25.8 °F 26.6 °F 75% 30.23 in 10.0 mi ESE 10.4 mph - N/A   Clear
7:35 AM 33.8 °F 24.8 °F 26.6 °F 75% 30.23 in 10.0 mi ESE 12.7 mph - N/A   Clear
7:55 AM 35.6 °F 27.5 °F 26.6 °F 70% 30.24 in 10.0 mi ESE 11.5 mph - N/A   Clear
8:15 AM 37.4 °F 29.3 °F 26.6 °F 65% 30.24 in 10.0 mi SE 12.7 mph - N/A   Clear
8:35 AM 39.2 °F 32.5 °F 28.4 °F 65% 30.25 in 10.0 mi SE 10.4 mph - N/A   Clear
8:55 AM 41.0 °F 34.3 °F 28.4 °F 61% 30.25 in 10.0 mi SE 11.5 mph 17.3 mph N/A   Clear
9:15 AM 42.8 °F 36.6 °F 28.4 °F 57% 30.26 in 10.0 mi SE 11.5 mph - N/A   Clear
9:35 AM 44.6 °F 39.2 °F 28.4 °F 53% 30.26 in 10.0 mi SE 10.4 mph - N/A   Clear
9:55 AM 46.4 °F 40.4 °F 28.4 °F 50% 30.26 in 10.0 mi SSE 13.8 mph 17.3 mph N/A   Clear
10:15 AM 46.4 °F 41.1 °F 28.4 °F 50% 30.25 in 10.0 mi SE 11.5 mph - N/A   Clear
10:35 AM 50.0 °F - 28.4 °F 43% 30.25 in 10.0 mi SE 9.2 mph - N/A   Clear
10:55 AM 50.0 °F - 28.4 °F 43% 30.25 in 10.0 mi SSE 9.2 mph - N/A   Clear
11:15 AM 51.8 °F - 28.4 °F 41% 30.25 in 10.0 mi SSE 11.5 mph - N/A   Clear
11:35 AM 51.8 °F - 30.2 °F 44% 30.25 in 10.0 mi SE 11.5 mph - N/A   Clear
11:55 AM 53.6 °F - 30.2 °F 41% 30.24 in 10.0 mi SE 13.8 mph 17.3 mph N/A   Clear
12:15 PM 53.6 °F - 30.2 °F 41% 30.23 in 10.0 mi SSE 11.5 mph 16.1 mph N/A   Clear
12:35 PM 55.4 °F - 30.2 °F 38% 30.22 in 10.0 mi SE 12.7 mph 16.1 mph N/A   Clear
12:55 PM 55.4 °F - 30.2 °F 38% 30.21 in 10.0 mi SSE 11.5 mph 16.1 mph N/A   Clear
1:15 PM 57.2 °F - 30.2 °F 36% 30.19 in 10.0 mi SSE 10.4 mph 17.3 mph N/A   Clear
1:35 PM 59.0 °F - 28.4 °F 31% 30.19 in 10.0 mi South 9.2 mph 16.1 mph N/A   Clear
1:55 PM 59.0 °F - 26.6 °F 29% 30.18 in 10.0 mi SSE 10.4 mph - N/A   Clear
2:15 PM 59.0 °F - 26.6 °F 29% 30.17 in 10.0 mi SE 9.2 mph 20.7 mph N/A   Clear
2:35 PM 60.8 °F - 26.6 °F 27% 30.16 in 10.0 mi SE 10.4 mph - N/A   Clear
2:55 PM 60.8 °F - 26.6 °F 27% 30.16 in 10.0 mi SSE 13.8 mph 17.3 mph N/A   Clear
3:15 PM 60.8 °F - 26.6 °F 27% 30.15 in 10.0 mi SSE 11.5 mph - N/A   Clear
3:35 PM 60.8 °F - 23.0 °F 23% 30.15 in 10.0 mi SSE 12.7 mph - N/A   Clear
3:55 PM 60.8 °F - 24.8 °F 25% 30.14 in 10.0 mi SSE 12.7 mph 16.1 mph N/A   Clear
4:15 PM 60.8 °F - 26.6 °F 27% 30.14 in 10.0 mi SSE 10.4 mph - N/A   Clear
4:35 PM 60.8 °F - 26.6 °F 27% 30.13 in 10.0 mi SE 9.2 mph - N/A   Clear
4:55 PM 59.0 °F - 28.4 °F 31% 30.13 in 10.0 mi SE 12.7 mph - N/A   Clear
5:15 PM 59.0 °F - 30.2 °F 34% 30.12 in 10.0 mi ESE 9.2 mph - N/A   Clear
5:35 PM 57.2 °F - 30.2 °F 36% 30.12 in 10.0 mi SE 10.4 mph - N/A   Clear
5:55 PM 55.4 °F - 30.2 °F 38% 30.12 in 10.0 mi ESE 10.4 mph - N/A   Clear
7:35 PM 46.4 °F 41.9 °F 30.2 °F 53% 30.14 in 10.0 mi SE 9.2 mph - N/A   Clear
7:55 PM 48.2 °F - 30.2 °F 50% 30.15 in 10.0 mi SE 9.2 mph - N/A   Clear
8:15 PM 46.4 °F 41.9 °F 30.2 °F 53% 30.14 in 10.0 mi ESE 9.2 mph - N/A   Clear
8:35 PM 46.4 °F 42.4 °F 30.2 °F 53% 30.15 in 10.0 mi SE 8.1 mph - N/A   Clear
8:55 PM 44.6 °F 40.2 °F 30.2 °F 57% 30.16 in 10.0 mi SE 8.1 mph - N/A   Clear
9:15 PM 44.6 °F 40.2 °F 30.2 °F 57% 30.16 in 10.0 mi ESE 8.1 mph - N/A   Clear
9:35 PM 44.6 °F 40.2 °F 30.2 °F 57% 30.17 in 10.0 mi ESE 8.1 mph - N/A   Clear
9:55 PM 44.6 °F 40.2 °F 30.2 °F 57% 30.17 in 10.0 mi ESE 8.1 mph - N/A   Clear
10:15 PM 42.8 °F 37.5 °F 30.2 °F 61% 30.18 in 10.0 mi ESE 9.2 mph - N/A   Clear
10:35 PM 42.8 °F 38.0 °F 30.2 °F 61% 30.18 in 10.0 mi SE 8.1 mph - N/A   Scattered Clouds
10:55 PM 42.8 °F 37.5 °F 30.2 °F 61% 30.19 in 10.0 mi SE 9.2 mph - N/A   Scattered Clouds
11:15 PM 42.8 °F 37.5 °F 30.2 °F 61% 30.19 in 10.0 mi ESE 9.2 mph - N/A   Clear
11:35 PM 42.8 °F 38.0 °F 30.2 °F 61% 30.19 in 10.0 mi ESE 8.1 mph - N/A   Clear
11:55 PM 42.8 °F 36.6 °F 30.2 °F 61% 30.19 in 10.0 mi ESE 11.5 mph - N/A   Clear